South Milwaukee, Wisconsin
Current Conditions -  °F | °C
As of 6:52 PM on Tuesday 21 Oct 2014 (Local Time) from KMKE Reporting Station
Few Clouds Few Clouds  
Wind Chill: 41°   Ceiling: Unl
Heat Index: 46°   Visibility: 10mi
Dew Point: 35°   Wind: 10mph
Humidity: 66%   Direction: 20°NNE
Pressure: 30.24"   Gusts: NA
Location:  42.91°N, 87.87°W
Report Text: KMKE 212352Z 02009KT 10SM FEW027 08/02 A3024 RMK AO2 SLP245 T00780017 10094 20072 51008
Loading
Personal Weather Stations






























Interactive Weather Map
Tropical Storm Tracking
New forecast layout! Learn more

10-Day Weather Forecast

Advertisements
Track Severe Weather on mobile